createdAt,value
2023-01-29T00:00:13.981Z,48.75
2023-01-29T00:02:40.745Z,48.72
2023-01-29T00:05:26.105Z,48.41
2023-01-29T00:07:53.770Z,48.36
2023-01-29T00:10:20.563Z,48.65
2023-01-29T00:12:47.835Z,48.78
2023-01-29T00:15:14.310Z,48.27
2023-01-29T00:17:40.967Z,48.59
2023-01-29T00:20:07.405Z,48.45
2023-01-29T00:22:33.804Z,48.52
2023-01-29T00:25:00.284Z,48.55
2023-01-29T00:27:27.108Z,48.53
2023-01-29T00:29:53.464Z,48.28
2023-01-29T00:32:19.972Z,48.29
2023-01-29T00:34:47.391Z,48.56
2023-01-29T00:37:13.765Z,48.31
2023-01-29T00:39:47.866Z,48.16
2023-01-29T00:42:14.585Z,48.37
2023-01-29T00:44:41.208Z,48.40
2023-01-29T00:47:07.771Z,48.12
2023-01-29T00:49:34.457Z,48.50
2023-01-29T00:52:01.205Z,48.21
2023-01-29T00:54:27.919Z,48.27
2023-01-29T00:56:54.654Z,48.34
2023-01-29T00:59:21.068Z,48.28
2023-01-29T01:01:47.452Z,48.03
2023-01-29T01:04:14.312Z,48.01
2023-01-29T01:06:41.042Z,48.42
2023-01-29T01:09:07.635Z,48.35
2023-01-29T01:11:34.354Z,48.48
2023-01-29T01:14:01.126Z,48.00
2023-01-29T01:16:27.695Z,48.01
2023-01-29T01:18:54.209Z,48.26
2023-01-29T01:21:20.625Z,48.13
2023-01-29T01:23:47.017Z,48.42
2023-01-29T01:26:13.482Z,48.25
2023-01-29T01:28:39.948Z,48.28
2023-01-29T01:31:06.600Z,48.34
2023-01-29T01:33:33.050Z,47.96
2023-01-29T01:35:59.708Z,48.33
2023-01-29T01:38:26.483Z,47.89
2023-01-29T01:40:53.688Z,48.23
2023-01-29T01:43:20.203Z,48.16
2023-01-29T01:45:46.721Z,48.45
2023-01-29T01:48:13.206Z,48.33
2023-01-29T01:50:39.844Z,48.20
2023-01-29T01:53:06.322Z,48.04
2023-01-29T01:55:33.082Z,48.23
2023-01-29T01:57:59.576Z,48.32
2023-01-29T02:00:26.150Z,48.07
2023-01-29T02:02:53.034Z,48.36
2023-01-29T02:05:19.725Z,48.02
2023-01-29T02:07:46.781Z,48.14
2023-01-29T02:10:13.815Z,48.28
2023-01-29T02:12:40.561Z,48.37
2023-01-29T02:15:07.140Z,48.27
2023-01-29T02:17:34.328Z,48.07
2023-01-29T02:20:00.787Z,48.15
2023-01-29T02:22:28.092Z,48.49
2023-01-29T02:24:55.184Z,48.14
2023-01-29T02:27:21.619Z,48.36
2023-01-29T02:29:48.335Z,48.17
2023-01-29T02:32:15.054Z,48.25
2023-01-29T02:34:41.435Z,48.20
2023-01-29T02:37:07.895Z,48.11
2023-01-29T02:39:34.505Z,48.08
2023-01-29T02:42:01.412Z,48.09
2023-01-29T02:44:27.897Z,48.00
2023-01-29T02:46:54.478Z,48.11
2023-01-29T02:49:20.960Z,48.25
2023-01-29T02:51:47.349Z,48.25
2023-01-29T02:54:14.182Z,48.04
2023-01-29T02:56:40.679Z,48.05
2023-01-29T02:59:07.048Z,47.89
2023-01-29T03:01:33.522Z,48.15
2023-01-29T03:03:59.985Z,47.95
2023-01-29T03:06:26.513Z,48.16
2023-01-29T03:08:53.233Z,48.01
2023-01-29T03:11:19.645Z,48.06
2023-01-29T03:13:46.123Z,48.20
2023-01-29T03:16:12.929Z,48.01
2023-01-29T03:18:39.483Z,48.02
2023-01-29T03:21:05.893Z,47.96
2023-01-29T03:23:32.657Z,48.18
2023-01-29T03:25:59.185Z,48.06
2023-01-29T03:28:25.572Z,48.08
2023-01-29T03:30:52.022Z,48.34
2023-01-29T03:33:18.547Z,48.10
2023-01-29T03:35:45.425Z,48.17
2023-01-29T03:38:11.916Z,48.24
2023-01-29T03:40:38.483Z,48.01
2023-01-29T03:43:04.880Z,48.18
2023-01-29T03:45:31.978Z,48.08
2023-01-29T03:47:58.607Z,48.24
2023-01-29T03:50:25.182Z,48.26
2023-01-29T03:52:51.741Z,48.28
2023-01-29T03:55:19.238Z,48.28
2023-01-29T03:57:45.927Z,47.96
2023-01-29T04:00:12.456Z,48.17
2023-01-29T04:02:38.960Z,48.20
2023-01-29T04:05:07.169Z,48.06
2023-01-29T04:07:33.957Z,47.83
2023-01-29T04:10:00.955Z,48.13
2023-01-29T04:12:28.787Z,48.34
2023-01-29T04:14:55.498Z,48.20
2023-01-29T04:17:22.120Z,48.45
2023-01-29T04:19:49.086Z,48.22
2023-01-29T04:22:15.615Z,48.16
2023-01-29T04:24:42.326Z,48.26
2023-01-29T04:27:08.695Z,48.17
2023-01-29T04:29:35.614Z,48.37
2023-01-29T04:32:02.301Z,48.18
2023-01-29T04:34:28.826Z,48.42
2023-01-29T04:36:55.411Z,47.91
2023-01-29T04:39:21.907Z,48.32
2023-01-29T04:41:48.532Z,47.94
2023-01-29T04:44:14.911Z,48.13
2023-01-29T04:46:41.250Z,48.02
2023-01-29T04:49:07.931Z,48.25
2023-01-29T04:51:34.438Z,48.08
2023-01-29T04:54:00.846Z,48.29
2023-01-29T04:56:27.466Z,48.15
2023-01-29T04:58:53.897Z,48.15
2023-01-29T05:01:20.362Z,48.32
2023-01-29T05:03:47.124Z,48.12
2023-01-29T05:06:13.589Z,48.40
2023-01-29T05:08:40.236Z,48.08
2023-01-29T05:11:06.677Z,48.16
2023-01-29T05:13:33.508Z,48.22
2023-01-29T05:16:00.015Z,48.31
2023-01-29T05:18:26.857Z,48.44
2023-01-29T05:20:53.656Z,48.35
2023-01-29T05:23:20.233Z,48.16
2023-01-29T05:25:46.815Z,48.15
2023-01-29T05:28:13.549Z,48.17
2023-01-29T05:30:40.102Z,48.04
2023-01-29T05:33:06.754Z,48.14
2023-01-29T05:35:33.209Z,48.11
2023-01-29T05:37:59.797Z,48.25
2023-01-29T05:40:26.434Z,48.26
2023-01-29T05:42:53.008Z,48.21
2023-01-29T05:45:19.551Z,48.21
2023-01-29T05:47:46.036Z,48.33
2023-01-29T05:50:12.684Z,48.29
2023-01-29T05:52:39.334Z,48.18
2023-01-29T05:55:05.844Z,48.29
2023-01-29T05:57:32.334Z,48.15
2023-01-29T05:59:58.863Z,48.29
2023-01-29T06:02:25.538Z,48.05
2023-01-29T06:04:52.538Z,48.13
2023-01-29T06:07:19.403Z,48.31
2023-01-29T06:09:46.037Z,48.05
2023-01-29T06:12:12.968Z,48.28
2023-01-29T06:14:39.628Z,48.24
2023-01-29T06:17:06.128Z,48.30
2023-01-29T06:19:33.140Z,48.13
2023-01-29T06:21:59.561Z,48.54
2023-01-29T06:24:26.162Z,48.31
2023-01-29T06:26:53.059Z,48.42
2023-01-29T06:29:19.644Z,48.23
2023-01-29T06:31:46.315Z,48.36
2023-01-29T06:34:12.992Z,48.57
2023-01-29T06:36:39.368Z,48.29
2023-01-29T06:39:06.142Z,48.33
2023-01-29T06:41:32.792Z,48.43
2023-01-29T06:43:59.291Z,48.47
2023-01-29T06:46:25.709Z,48.35
2023-01-29T06:48:52.783Z,48.59
2023-01-29T06:51:19.622Z,48.63
2023-01-29T06:53:46.910Z,48.77
2023-01-29T06:56:13.795Z,48.57
2023-01-29T06:58:40.325Z,48.58
2023-01-29T07:01:06.878Z,48.51
2023-01-29T07:03:33.525Z,48.72
2023-01-29T07:06:00.075Z,48.76
2023-01-29T07:08:26.877Z,48.77
2023-01-29T07:10:53.453Z,48.52
2023-01-29T07:13:19.854Z,48.67
2023-01-29T07:15:46.444Z,48.56
2023-01-29T07:18:13.156Z,48.76
2023-01-29T07:20:39.564Z,48.56
2023-01-29T07:23:06.195Z,48.68
2023-01-29T07:25:32.794Z,48.59
2023-01-29T07:28:00.873Z,48.64
2023-01-29T07:30:27.581Z,48.59
2023-01-29T07:32:54.171Z,48.55
2023-01-29T07:35:20.837Z,48.61
2023-01-29T07:37:47.292Z,48.66
2023-01-29T07:40:13.878Z,48.62
2023-01-29T07:42:40.862Z,48.97
2023-01-29T07:45:07.478Z,48.67
2023-01-29T07:47:34.148Z,48.94
2023-01-29T07:50:00.670Z,48.81
2023-01-29T07:52:27.311Z,48.57
2023-01-29T07:54:53.740Z,48.71
2023-01-29T07:57:20.426Z,48.97
2023-01-29T07:59:47.367Z,48.76
2023-01-29T08:02:13.948Z,48.79
2023-01-29T08:04:40.533Z,48.73
2023-01-29T08:07:06.941Z,48.86
2023-01-29T08:09:33.716Z,48.95
2023-01-29T08:12:00.245Z,48.80
2023-01-29T08:14:26.917Z,48.85
2023-01-29T08:16:53.242Z,48.87
2023-01-29T08:19:20.565Z,48.89
2023-01-29T08:21:47.101Z,49.00
2023-01-29T08:24:13.848Z,48.94
2023-01-29T08:26:40.383Z,48.98
2023-01-29T08:29:06.997Z,49.00
2023-01-29T08:31:33.671Z,49.17
2023-01-29T08:34:00.155Z,48.94
2023-01-29T08:36:26.562Z,48.90
2023-01-29T08:38:53.644Z,48.97
2023-01-29T08:41:20.718Z,48.94
2023-01-29T08:43:47.229Z,49.08
2023-01-29T08:46:13.673Z,48.82
2023-01-29T08:48:40.131Z,49.16
2023-01-29T08:51:06.717Z,49.08
2023-01-29T08:53:33.569Z,49.08
2023-01-29T08:56:00.197Z,49.19
2023-01-29T08:58:27.880Z,49.31
2023-01-29T09:00:54.267Z,49.44
2023-01-29T09:03:21.111Z,49.73
2023-01-29T09:05:47.465Z,50.06
2023-01-29T09:08:14.007Z,50.15
2023-01-29T09:10:40.543Z,50.41
2023-01-29T09:13:07.280Z,50.51
2023-01-29T09:15:33.734Z,50.68
2023-01-29T09:18:00.159Z,50.91
2023-01-29T09:20:27.382Z,50.83
2023-01-29T09:22:53.911Z,51.18
2023-01-29T09:25:20.628Z,51.55
2023-01-29T09:27:47.220Z,51.44
2023-01-29T09:30:14.128Z,51.60
2023-01-29T09:32:56.016Z,51.64
2023-01-29T09:35:22.633Z,51.84
2023-01-29T09:37:49.389Z,52.15
2023-01-29T09:40:16.249Z,52.14
2023-01-29T09:42:42.806Z,52.25
2023-01-29T09:45:09.475Z,52.29
2023-01-29T09:47:35.981Z,52.30
2023-01-29T09:50:02.840Z,52.56
2023-01-29T09:52:29.523Z,52.57
2023-01-29T09:54:55.990Z,52.32
2023-01-29T09:57:22.445Z,52.46
2023-01-29T09:59:49.650Z,52.49
2023-01-29T10:02:16.292Z,52.47
2023-01-29T10:04:43.009Z,52.57
2023-01-29T10:07:09.506Z,52.21
2023-01-29T10:09:36.223Z,52.25
2023-01-29T10:12:02.958Z,52.51
2023-01-29T10:14:29.579Z,52.58
2023-01-29T10:16:56.078Z,52.50
2023-01-29T10:19:22.573Z,52.88
2023-01-29T10:21:49.014Z,52.98
2023-01-29T10:24:16.120Z,52.64
2023-01-29T10:26:43.132Z,52.46
2023-01-29T10:29:09.855Z,52.53
2023-01-29T10:31:36.350Z,52.54
2023-01-29T10:34:03.234Z,52.42
2023-01-29T10:36:29.818Z,52.55
2023-01-29T10:38:56.270Z,52.58
2023-01-29T10:41:22.732Z,52.53
2023-01-29T10:43:49.432Z,52.42
2023-01-29T10:46:16.227Z,52.57
2023-01-29T10:48:42.758Z,52.55
2023-01-29T10:51:10.234Z,52.39
2023-01-29T10:53:37.639Z,52.21
2023-01-29T10:56:14.039Z,52.28
2023-01-29T10:58:45.506Z,52.12
2023-01-29T11:01:13.772Z,52.40
2023-01-29T11:03:40.317Z,52.20
2023-01-29T11:06:06.734Z,52.05
2023-01-29T11:08:33.113Z,52.04
2023-01-29T11:10:59.946Z,51.99
2023-01-29T11:13:27.335Z,52.09
2023-01-29T11:15:53.754Z,52.02
2023-01-29T11:18:20.121Z,52.08
2023-01-29T11:20:46.655Z,52.00
2023-01-29T11:23:13.046Z,51.76
2023-01-29T11:25:39.600Z,51.74
2023-01-29T11:28:06.121Z,51.53
2023-01-29T11:30:32.984Z,51.59
2023-01-29T11:32:59.397Z,51.33
2023-01-29T11:35:25.981Z,51.29
2023-01-29T11:37:53.175Z,51.28
2023-01-29T11:40:19.967Z,51.41
2023-01-29T11:42:46.965Z,51.29
2023-01-29T11:45:13.798Z,51.30
2023-01-29T11:47:40.294Z,51.50
2023-01-29T11:50:06.792Z,51.50
2023-01-29T11:52:33.536Z,51.48
2023-01-29T11:54:59.861Z,51.22
2023-01-29T11:57:26.274Z,51.53
2023-01-29T11:59:52.680Z,51.44
2023-01-29T12:02:19.135Z,51.02
2023-01-29T12:04:46.829Z,51.23
2023-01-29T12:07:13.185Z,50.82
2023-01-29T12:09:39.585Z,50.63
2023-01-29T12:12:06.151Z,50.46
2023-01-29T12:14:33.175Z,50.70
2023-01-29T12:16:59.564Z,50.58
2023-01-29T12:19:25.990Z,50.56
2023-01-29T12:21:52.901Z,50.56
2023-01-29T12:24:19.332Z,50.54
2023-01-29T12:26:45.746Z,50.60
2023-01-29T12:29:12.834Z,50.56
2023-01-29T12:31:39.128Z,50.48
2023-01-29T12:34:05.573Z,50.38
2023-01-29T12:36:32.317Z,50.33
2023-01-29T12:38:58.912Z,50.38
2023-01-29T12:41:25.735Z,50.36
2023-01-29T12:43:52.377Z,50.30
2023-01-29T12:46:19.360Z,50.02
2023-01-29T12:48:46.867Z,50.39
2023-01-29T12:51:13.462Z,50.80
2023-01-29T12:53:40.128Z,50.01
2023-01-29T12:56:06.973Z,49.71
2023-01-29T12:58:34.073Z,49.97
2023-01-29T13:01:00.756Z,49.85
2023-01-29T13:03:27.960Z,50.04
2023-01-29T13:05:54.905Z,50.14
2023-01-29T13:08:21.430Z,50.01
2023-01-29T13:10:47.873Z,50.07
2023-01-29T13:13:14.347Z,49.86
2023-01-29T13:15:41.131Z,49.71
2023-01-29T13:18:08.083Z,49.80
2023-01-29T13:20:34.634Z,50.08
2023-01-29T13:23:01.380Z,50.00
2023-01-29T13:25:27.850Z,49.93
2023-01-29T13:27:54.964Z,50.24
2023-01-29T13:30:21.618Z,50.22
2023-01-29T13:32:48.389Z,50.04
2023-01-29T13:35:15.004Z,50.05
2023-01-29T13:37:41.914Z,49.92
2023-01-29T13:40:08.628Z,49.70
2023-01-29T13:42:35.374Z,49.85
2023-01-29T13:45:01.905Z,49.81
2023-01-29T13:47:28.838Z,49.81
2023-01-29T13:49:55.374Z,49.67
2023-01-29T13:52:22.173Z,49.90
2023-01-29T13:54:48.938Z,49.75
2023-01-29T13:57:15.559Z,50.00
2023-01-29T13:59:42.119Z,50.07
2023-01-29T14:02:09.261Z,50.12
2023-01-29T14:04:35.671Z,50.02
2023-01-29T14:07:02.245Z,49.62
2023-01-29T14:09:29.073Z,49.94
2023-01-29T14:11:56.087Z,49.99
2023-01-29T14:14:22.623Z,50.07
2023-01-29T14:16:49.738Z,50.10
2023-01-29T14:19:16.384Z,50.07
2023-01-29T14:21:42.892Z,50.10
2023-01-29T14:24:09.957Z,49.85
2023-01-29T14:26:36.482Z,49.94
2023-01-29T14:29:02.911Z,50.14
2023-01-29T14:31:29.499Z,50.32
2023-01-29T14:33:56.311Z,50.24
2023-01-29T14:36:22.717Z,50.33
2023-01-29T14:38:51.899Z,50.30
2023-01-29T14:41:19.974Z,50.39
2023-01-29T14:43:46.432Z,50.36
2023-01-29T14:46:12.965Z,50.57
2023-01-29T14:48:39.524Z,50.35
2023-01-29T14:51:07.061Z,50.44
2023-01-29T14:53:34.570Z,50.57
2023-01-29T14:56:01.024Z,50.80
2023-01-29T14:58:27.559Z,50.81
2023-01-29T15:00:54.396Z,50.57
2023-01-29T15:03:21.779Z,49.96
2023-01-29T15:05:48.156Z,49.79
2023-01-29T15:08:14.733Z,50.08
2023-01-29T15:10:41.489Z,50.30
2023-01-29T15:13:07.963Z,50.16
2023-01-29T15:15:34.503Z,49.90
2023-01-29T15:18:01.419Z,50.22
2023-01-29T15:20:28.381Z,50.32
2023-01-29T15:22:55.241Z,49.85
2023-01-29T15:25:21.832Z,49.72
2023-01-29T15:27:48.886Z,49.70
2023-01-29T15:30:15.737Z,49.82
2023-01-29T15:32:42.658Z,49.58
2023-01-29T15:35:09.014Z,49.95
2023-01-29T15:37:35.614Z,50.15
2023-01-29T15:40:02.773Z,50.07
2023-01-29T15:42:29.579Z,50.07
2023-01-29T15:44:56.736Z,50.13
2023-01-29T15:47:23.222Z,50.13
2023-01-29T15:49:49.727Z,49.95
2023-01-29T15:52:16.276Z,49.98
2023-01-29T15:54:42.624Z,49.75
2023-01-29T15:57:09.563Z,49.32
2023-01-29T15:59:36.083Z,48.88
2023-01-29T16:02:02.448Z,49.06
2023-01-29T16:04:29.029Z,48.74
2023-01-29T16:06:55.814Z,48.59
2023-01-29T16:09:22.411Z,48.54
2023-01-29T16:11:48.843Z,48.33
2023-01-29T16:14:15.429Z,48.01
2023-01-29T16:16:41.888Z,47.93
2023-01-29T16:19:08.995Z,47.64
2023-01-29T16:21:35.376Z,47.46
2023-01-29T16:24:01.893Z,47.67
2023-01-29T16:26:28.716Z,47.28
2023-01-29T16:28:55.680Z,47.68
2023-01-29T16:31:22.206Z,47.57
2023-01-29T16:33:48.961Z,47.52
2023-01-29T16:36:15.422Z,47.56
2023-01-29T16:38:41.888Z,47.44
2023-01-29T16:41:08.410Z,47.22
2023-01-29T16:43:41.955Z,47.24
2023-01-29T16:46:09.181Z,47.04
2023-01-29T16:48:35.873Z,47.30
2023-01-29T16:51:02.384Z,47.51
2023-01-29T16:53:28.682Z,47.41
2023-01-29T16:55:55.523Z,47.32
2023-01-29T16:58:21.946Z,47.33
2023-01-29T17:00:48.440Z,47.09
2023-01-29T17:03:14.960Z,47.16
2023-01-29T17:05:41.270Z,47.09
2023-01-29T17:08:08.085Z,47.23
2023-01-29T17:10:34.823Z,47.33
2023-01-29T17:13:01.301Z,47.18
2023-01-29T17:15:28.267Z,47.25
2023-01-29T17:17:55.097Z,47.39
2023-01-29T17:20:21.468Z,47.24
2023-01-29T17:22:48.260Z,47.36
2023-01-29T17:25:15.171Z,47.38
2023-01-29T17:27:41.913Z,47.21
2023-01-29T17:30:08.283Z,47.18
2023-01-29T17:32:43.525Z,47.20
2023-01-29T17:35:11.684Z,47.34
2023-01-29T17:37:38.336Z,47.54
2023-01-29T17:40:05.475Z,47.78
2023-01-29T17:42:31.908Z,47.54
2023-01-29T17:44:58.375Z,47.62
2023-01-29T17:47:25.518Z,47.39
2023-01-29T17:49:51.982Z,47.62
2023-01-29T17:52:18.631Z,47.52
2023-01-29T17:54:45.116Z,47.70
2023-01-29T17:57:11.835Z,47.55
2023-01-29T17:59:39.211Z,47.74
2023-01-29T18:02:05.788Z,47.69
2023-01-29T18:04:32.360Z,47.56
2023-01-29T18:06:58.819Z,47.60
2023-01-29T18:09:25.584Z,47.73
2023-01-29T18:11:52.140Z,47.64
2023-01-29T18:14:18.748Z,47.72
2023-01-29T18:16:45.384Z,47.58
2023-01-29T18:19:12.076Z,47.86
2023-01-29T18:21:38.638Z,47.93
2023-01-29T18:24:05.786Z,47.95
2023-01-29T18:26:32.685Z,47.85
2023-01-29T18:28:59.612Z,47.68
2023-01-29T18:31:26.140Z,47.66
2023-01-29T18:33:52.652Z,47.68
2023-01-29T18:36:19.918Z,47.90
2023-01-29T18:38:46.273Z,47.79
2023-01-29T18:41:13.005Z,47.87
2023-01-29T18:43:39.492Z,47.59
2023-01-29T18:46:06.185Z,47.57
2023-01-29T18:48:32.760Z,47.52
2023-01-29T18:50:59.885Z,47.83
2023-01-29T18:53:27.270Z,47.78
2023-01-29T18:55:53.631Z,47.79
2023-01-29T18:58:28.052Z,47.67
2023-01-29T19:01:01.465Z,47.86
2023-01-29T19:03:28.085Z,47.80
2023-01-29T19:05:54.785Z,47.68
2023-01-29T19:08:21.479Z,47.73
2023-01-29T19:10:48.223Z,47.93
2023-01-29T19:13:14.649Z,47.61
2023-01-29T19:15:41.603Z,47.72
2023-01-29T19:18:08.036Z,47.77
2023-01-29T19:20:34.457Z,47.68
2023-01-29T19:23:00.825Z,47.78
2023-01-29T19:25:27.762Z,47.79
2023-01-29T19:27:54.217Z,47.61
2023-01-29T19:30:20.723Z,47.71
2023-01-29T19:32:47.801Z,47.68
2023-01-29T19:35:14.114Z,47.74
2023-01-29T19:37:40.730Z,47.69
2023-01-29T19:40:07.264Z,47.74
2023-01-29T19:42:33.869Z,47.80
2023-01-29T19:45:00.504Z,47.61
2023-01-29T19:47:27.418Z,47.67
2023-01-29T19:49:54.095Z,47.46
2023-01-29T19:52:20.510Z,47.69
2023-01-29T19:54:47.459Z,47.74
2023-01-29T19:57:14.051Z,47.64
2023-01-29T19:59:40.500Z,47.74
2023-01-29T20:02:07.469Z,47.49
2023-01-29T20:04:34.272Z,47.65
2023-01-29T20:07:00.882Z,47.61
2023-01-29T20:09:27.289Z,47.83
2023-01-29T20:11:53.913Z,47.67
2023-01-29T20:14:20.478Z,47.56
2023-01-29T20:16:46.969Z,47.76
2023-01-29T20:19:15.134Z,47.40
2023-01-29T20:21:41.605Z,47.78
2023-01-29T20:24:08.950Z,47.30
2023-01-29T20:26:35.481Z,47.62
2023-01-29T20:29:01.857Z,47.24
2023-01-29T20:31:28.728Z,47.40
2023-01-29T20:33:55.821Z,47.76
2023-01-29T20:36:22.941Z,47.49
2023-01-29T20:38:49.326Z,47.52
2023-01-29T20:41:15.777Z,47.71
2023-01-29T20:43:42.437Z,47.65
2023-01-29T20:46:08.928Z,47.44
2023-01-29T20:48:35.562Z,47.56
2023-01-29T20:51:02.143Z,47.46
2023-01-29T20:53:28.545Z,47.64
2023-01-29T20:55:55.090Z,47.50
2023-01-29T20:58:21.543Z,47.67
2023-01-29T21:00:48.264Z,47.55
2023-01-29T21:03:14.982Z,47.67
2023-01-29T21:05:41.420Z,47.68
2023-01-29T21:08:07.860Z,47.62
2023-01-29T21:10:34.327Z,47.56
2023-01-29T21:13:01.572Z,47.55
2023-01-29T21:15:28.318Z,47.43
2023-01-29T21:17:55.293Z,47.58
2023-01-29T21:20:21.907Z,47.39
2023-01-29T21:22:48.327Z,47.42
2023-01-29T21:25:14.778Z,47.45
2023-01-29T21:27:41.163Z,47.75
2023-01-29T21:30:07.720Z,47.42
2023-01-29T21:32:34.198Z,47.23
2023-01-29T21:35:01.002Z,47.51
2023-01-29T21:37:28.027Z,47.43
2023-01-29T21:39:54.748Z,47.56
2023-01-29T21:42:21.851Z,47.65
2023-01-29T21:44:48.317Z,47.66
2023-01-29T21:47:15.118Z,47.34
2023-01-29T21:49:42.065Z,47.45
2023-01-29T21:52:08.454Z,47.66
2023-01-29T21:54:34.916Z,47.74
2023-01-29T21:57:01.379Z,47.65
2023-01-29T21:59:27.930Z,47.40
2023-01-29T22:01:54.410Z,47.45
2023-01-29T22:04:21.096Z,47.53
2023-01-29T22:06:48.132Z,47.31
2023-01-29T22:09:15.039Z,47.32
2023-01-29T22:11:41.702Z,47.50
2023-01-29T22:14:08.083Z,47.39
2023-01-29T22:16:34.577Z,47.51
2023-01-29T22:19:01.471Z,47.51
2023-01-29T22:21:28.165Z,47.40
2023-01-29T22:23:54.877Z,47.42
2023-01-29T22:26:21.367Z,47.57
2023-01-29T22:28:48.049Z,47.39
2023-01-29T22:31:15.169Z,47.41
2023-01-29T22:33:41.622Z,47.41
2023-01-29T22:36:08.291Z,47.68
2023-01-29T22:38:35.439Z,47.52
2023-01-29T22:41:01.791Z,47.63
2023-01-29T22:43:28.475Z,47.53
2023-01-29T22:45:54.908Z,48.25
2023-01-29T22:48:21.461Z,47.54
2023-01-29T22:50:48.656Z,47.92
2023-01-29T22:53:15.033Z,47.73
2023-01-29T22:55:41.465Z,47.50
2023-01-29T22:58:08.144Z,47.73
2023-01-29T23:00:34.496Z,47.54
2023-01-29T23:03:01.208Z,47.66
2023-01-29T23:05:27.826Z,47.71
2023-01-29T23:07:54.948Z,47.38
2023-01-29T23:10:21.297Z,47.52
2023-01-29T23:12:47.686Z,47.31
2023-01-29T23:15:14.315Z,47.47
2023-01-29T23:17:40.674Z,47.44
2023-01-29T23:20:07.021Z,47.54
2023-01-29T23:22:33.551Z,47.71
2023-01-29T23:25:00.048Z,48.24
2023-01-29T23:27:26.640Z,47.76
2023-01-29T23:29:53.264Z,47.68
2023-01-29T23:32:19.725Z,47.76
2023-01-29T23:34:46.342Z,47.91
2023-01-29T23:37:12.930Z,47.72
2023-01-29T23:39:39.418Z,47.56
2023-01-29T23:42:05.788Z,47.61
2023-01-29T23:44:32.344Z,47.52
2023-01-29T23:46:59.103Z,47.60
2023-01-29T23:49:25.537Z,47.45
2023-01-29T23:51:51.922Z,48.08
2023-01-29T23:54:18.437Z,47.67
2023-01-29T23:56:44.860Z,47.55
2023-01-29T23:59:11.403Z,47.68
